Latest Weather Observations for Yanco

IDN60801

Issued at 9:42 am EST Tuesday 26 May 2020 (issued every 10 minutes, with the page automatically refreshed every 10 minutes)

About weather observations | Map of weather stations | Latest weather observations for NSW | Other Formats
Station Details ID: 074037 Name: YANCO AGRICULTURAL INSTITUTE Lat: -34.62 Lon: 146.43 Height: 164.0 m
Data from the previous 72 hours. | See also: Recent months at Yanco
Date/Time
EST
Temp
°C
App
Temp
°C
Dew
Point
°C
Rel
Hum
%
Delta-T
°C
Wind Press
QNH
hPa
Press
MSL
hPa
Rain since
9am
mm
Dir  Spd
km/h
Gust
km/h
Spd
kts
Gust
kts
26/09:30am 10.7 8.5 10.7 100 0.0 ESE 13 15 7 8 - - 0.0
26/09:00am 8.8 6.4 8.5 98 0.1 ESE 11 13 6 7 - - 0.0
26/08:30am 8.7 7.2 8.6 99 0.0 E 6 9 3 5 - - 0.0
26/08:00am 8.2 - - - - E 4 6 2 3 - - 0.0
26/07:30am 5.9 - - - - ENE 4 6 2 3 - - 0.0
26/07:00am 5.7 - - - - N 6 6 3 3 - - 0.0
26/06:30am 6.8 4.4 6.8 100 0.0 E 9 13 5 7 - - 0.0
26/06:00am 6.8 4.7 6.8 100 0.0 E 7 9 4 5 - - 0.0
26/05:30am 7.0 5.0 7.0 100 0.0 E 7 9 4 5 - - 0.0
26/05:00am 7.1 5.1 7.1 100 0.0 ESE 7 13 4 7 - - 0.0
26/04:30am 7.4 4.3 7.4 100 0.0 E 13 17 7 9 - - 0.0
26/04:00am 7.4 3.6 7.4 100 0.0 E 17 19 9 10 - - 0.0
26/03:30am 7.4 3.9 7.4 100 0.0 E 15 17 8 9 - - 0.0
26/03:00am 6.9 - - - - ESE 9 11 5 6 - - 0.0
26/02:30am 7.3 - - - - ESE 11 15 6 8 - - 0.0
26/02:00am 7.0 4.2 7.0 100 0.0 ESE 11 15 6 8 - - 0.0
26/01:30am 8.1 5.9 7.7 97 0.2 SE 9 13 5 7 - - 0.0
26/01:00am 8.9 6.4 8.0 94 0.4 SE 11 15 6 8 - - 0.0
26/12:30am 9.1 6.5 7.7 91 0.7 SE 11 13 6 7 - - 0.0
26/12:00am 9.2 7.0 7.8 91 0.7 SE 9 11 5 6 - - 0.0
 
Date/Time
EST
Temp
°C
App
Temp
°C
Dew
Point
°C
Rel
Hum
%
Delta-T
°C
Wind Press
QNH
hPa
Press
MSL
hPa
Rain since
9am
mm
Dir  Spd
km/h
Gust
km/h
Spd
kts
Gust
kts
25/11:30pm 9.4 7.5 7.7 89 0.8 SE 7 9 4 5 - - 0.0
25/11:00pm 8.9 6.5 7.2 89 0.8 SE 9 9 5 5 - - 0.0
25/10:30pm 9.3 7.0 7.4 88 0.9 SSE 9 11 5 6 - - 0.0
25/10:00pm 8.1 6.0 6.6 90 0.7 SSE 7 9 4 5 - - 0.0
25/09:30pm 10.4 8.1 7.3 81 1.5 SE 9 9 5 5 - - 0.0
25/09:00pm 10.4 8.4 7.1 80 1.6 SE 7 9 4 5 - - 0.0
25/08:30pm 11.0 8.7 7.3 78 1.8 SE 9 11 5 6 - - 0.0
25/08:00pm 12.1 10.6 7.0 71 2.5 S 4 4 2 2 - - 0.0
25/07:30pm 12.4 11.0 7.1 70 2.6 S 4 6 2 3 - - 0.0
25/07:00pm 12.3 10.9 7.4 72 2.4 S 4 6 2 3 - - 0.0
25/06:30pm 12.1 10.9 6.4 68 2.7 S 2 2 1 1 - - 0.0
25/06:00pm 14.0 12.4 6.4 60 3.7 S 4 4 2 2 - - 0.0
25/05:30pm 14.2 12.7 6.6 60 3.7 S 4 4 2 2 - - 0.0
25/05:00pm 14.9 13.9 7.2 60 3.8 S 2 4 1 2 - - 0.0
25/04:30pm 16.0 14.6 8.7 62 3.8 SSE 6 7 3 4 - - 0.0
25/04:00pm 16.6 15.0 8.8 60 4.0 SSE 7 13 4 7 - - 0.0
25/03:30pm 16.7 14.5 7.9 56 4.5 ESE 9 15 5 8 - - 0.0
25/03:00pm 16.9 14.9 8.6 58 4.3 SE 9 13 5 7 - - 0.0
25/02:30pm 17.0 14.8 9.2 60 4.1 SSE 11 17 6 9 - - 0.0
25/02:00pm 16.8 14.6 9.2 61 4.0 SE 11 17 6 9 - - 0.0
25/01:30pm 16.7 14.7 10.1 65 3.5 SE 11 19 6 10 - - 0.0
25/01:00pm 16.1 13.8 9.1 63 3.6 SSE 11 17 6 9 - - 0.0
25/12:30pm 15.9 13.9 10.0 68 3.1 SSE 11 17 6 9 - - 0.0
25/12:00pm 15.6 13.5 9.7 68 3.1 SSE 11 17 6 9 - - 0.0
25/11:30am 14.8 13.0 9.4 70 2.8 SSE 9 15 5 8 - - 0.0
25/11:00am 13.3 11.5 9.4 77 2.0 SE 9 13 5 7 - - 0.0
25/10:30am 11.8 10.2 8.6 81 1.6 SSE 7 13 4 7 - - 0.0
25/10:00am 9.3 7.4 7.7 90 0.8 SE 7 9 4 5 - - 0.0
25/09:30am 7.8 5.9 7.4 97 0.2 SE 7 11 4 6 - - 0.0
25/09:00am 6.6 - - - - S 6 7 3 4 - - 0.2
25/08:30am 5.2 - - - - CALM 0 0 0 0 - - 0.2
25/08:00am 3.7 - - - - CALM 0 0 0 0 - - 0.2
25/07:30am 3.0 - - - - CALM 0 2 0 1 - - 0.2
25/07:00am 3.1 - - - - SSW 2 2 1 1 - - 0.2
25/06:30am 3.3 - - - - CALM 0 0 0 0 - - 0.2
25/06:00am 3.1 - - - - CALM 0 0 0 0 - - 0.2
25/05:30am 2.9 - - - - SSW 2 4 1 2 - - 0.0
25/05:00am 2.9 - - - - SSW 2 4 1 2 - - 0.0
25/04:30am 2.9 - - - - SSW 4 4 2 2 - - 0.0
25/04:00am 3.9 - - - - SSW 2 4 1 2 - - 0.0
25/03:30am 4.4 - - - - S 7 9 4 5 - - 0.0
25/03:00am 4.4 - - - - S 7 9 4 5 - - 0.0
25/02:30am 4.9 - - - - S 9 9 5 5 - - 0.0
25/02:00am 4.4 - - - - S 7 9 4 5 - - 0.0
25/01:30am 4.4 - - - - SSW 7 9 4 5 - - 0.0
25/01:00am 5.4 - - - - S 9 9 5 5 - - 0.0
25/12:30am 4.8 - - - - SSW 7 9 4 5 - - 0.0
25/12:00am 4.8 - - - - SW 6 6 3 3 - - 0.0
 
Date/Time
EST
Temp
°C
App
Temp
°C
Dew
Point
°C
Rel
Hum
%
Delta-T
°C
Wind Press
QNH
hPa
Press
MSL
hPa
Rain since
9am
mm
Dir  Spd
km/h
Gust
km/h
Spd
kts
Gust
kts
24/11:30pm 5.3 - - - - SW 7 7 4 4 - - 0.0
24/11:00pm 6.3 - - - - SSW 4 6 2 3 - - 0.0
24/10:30pm 6.7 - - - - SSW 4 6 2 3 - - 0.0
24/10:00pm 6.4 - - - - SSW 7 9 4 5 - - 0.0
24/09:30pm 7.0 - - - - SSW 9 11 5 6 - - 0.0
24/09:00pm 8.1 - - - - SSW 9 13 5 7 - - 0.0
24/08:30pm 9.0 - - - - SSW 13 17 7 9 - - 0.0
24/08:00pm 9.2 - - - - SSW 13 17 7 9 - - 0.0
24/07:30pm 8.7 7.1 8.7 100 0.0 SW 7 9 4 5 - - 0.0
24/07:00pm 9.3 7.2 8.4 94 0.4 SSW 9 11 5 6 - - 0.0
24/06:30pm 9.7 7.6 8.1 90 0.8 SSW 9 11 5 6 - - 0.0
24/06:00pm 10.4 8.2 8.0 85 1.2 SSW 9 13 5 7 - - 0.0
24/05:30pm 11.6 8.7 8.3 80 1.6 SSW 13 15 7 8 - - 0.0
24/05:00pm 12.7 9.4 8.2 74 2.2 SSW 15 22 8 12 - - 0.0
24/04:30pm 14.1 10.2 8.7 70 2.7 SSW 19 26 10 14 - - 0.0
24/04:00pm 14.9 10.4 8.4 65 3.3 SSW 22 28 12 15 - - 0.0
24/03:30pm 15.4 11.0 8.9 65 3.3 SSW 22 30 12 16 - - 0.0
24/03:00pm 15.8 11.4 8.8 63 3.6 SSW 22 30 12 16 - - 0.0
24/02:30pm 16.3 13.0 9.7 65 3.5 SSW 17 28 9 15 - - 0.0
24/02:00pm 16.2 13.0 9.8 66 3.4 SSW 17 26 9 14 - - 0.0
24/01:30pm 16.3 12.6 9.3 63 3.7 S 19 26 10 14 - - 0.0
24/01:00pm 15.2 11.3 9.6 69 2.9 SSW 20 28 11 15 - - 0.0
24/12:30pm 14.9 11.0 9.3 69 2.9 S 20 28 11 15 - - 0.0
24/12:00pm 14.3 10.3 9.1 71 2.7 SSW 20 28 11 15 - - 0.0
24/11:30am 13.7 9.9 9.2 74 2.3 SSW 19 24 10 13 - - 0.0
24/11:00am 12.9 9.0 8.6 75 2.2 SSW 19 26 10 14 - - 0.0
24/10:30am 11.5 7.9 8.4 81 1.5 SSW 17 24 9 13 - - 0.0
24/10:00am 10.4 6.4 8.3 87 1.0 SSW 19 24 10 13 - - 0.0
24/09:30am 9.4 6.2 8.3 93 0.5 SSW 15 19 8 10 - - 0.0
24/09:00am 8.2 5.7 8.2 100 0.0 SSW 11 17 6 9 - - 0.2
24/08:30am 7.0 4.2 7.0 100 0.0 SSW 11 13 6 7 - - 0.2
24/08:00am 6.0 2.2 6.0 100 0.0 SSW 15 22 8 12 - - 0.2
24/07:30am 6.3 3.0 6.3 100 0.0 SSW 13 17 7 9 - - 0.2
24/07:00am 5.8 2.8 5.8 100 0.0 SSW 11 15 6 8 - - 0.2
24/06:30am 6.4 2.3 6.4 100 0.0 S 17 24 9 13 - - 0.2
24/06:00am 6.3 3.4 6.3 100 0.0 SSW 11 17 6 9 - - 0.2
24/05:30am 5.0 1.8 5.0 100 0.0 SSW 11 11 6 6 - - 0.2
24/05:00am 4.9 2.4 4.9 100 0.0 SW 7 11 4 6 - - 0.2
24/04:30am 6.5 3.2 6.5 100 0.0 S 13 17 7 9 - - 0.2
24/04:00am 6.0 2.6 6.0 100 0.0 SSW 13 17 7 9 - - 0.2
24/03:30am 5.0 1.8 5.0 100 0.0 SW 11 15 6 8 - - 0.0
24/03:00am 6.0 2.6 6.0 100 0.0 SSW 13 17 7 9 - - 0.0
24/02:30am 6.2 3.2 6.2 100 0.0 SSW 11 19 6 10 - - 0.0
24/02:00am 6.3 3.7 6.3 100 0.0 S 9 15 5 8 - - 0.0
24/01:30am 6.3 3.4 6.3 100 0.0 SSW 11 15 6 8 - - 0.0
24/01:00am 6.6 3.7 6.6 100 0.0 S 11 15 6 8 - - 0.0
24/12:30am 7.1 4.0 7.1 100 0.0 S 13 17 7 9 - - 0.0
24/12:00am 7.0 3.8 7.0 100 0.0 SSW 13 19 7 10 - - 0.0
 
Date/Time
EST
Temp
°C
App
Temp
°C
Dew
Point
°C
Rel
Hum
%
Delta-T
°C
Wind Press
QNH
hPa
Press
MSL
hPa
Rain since
9am
mm
Dir  Spd
km/h
Gust
km/h
Spd
kts
Gust
kts
23/11:30pm 7.3 4.6 7.3 100 0.0 SSW 11 17 6 9 - - 0.0
23/11:00pm 7.1 4.0 7.1 100 0.0 SSW 13 19 7 10 - - 0.0
23/10:30pm 7.2 3.7 7.2 100 0.0 SSW 15 17 8 9 - - 0.0
23/10:00pm 7.6 - - - - SW 17 20 9 11 - - 0.0
23/09:30pm 7.7 - - - - SW 13 15 7 8 - - 0.0
23/09:00pm 8.4 - - - - SW 15 17 8 9 - - 0.0
23/08:30pm 9.6 6.3 9.6 100 0.0 SSW 17 22 9 12 - - 0.0
23/08:00pm 9.5 6.6 9.5 100 0.0 SSW 15 19 8 10 - - 0.0
23/07:30pm 9.1 6.8 9.1 100 0.0 SW 11 15 6 8 - - 0.0
23/07:00pm 9.6 8.1 9.3 98 0.1 WSW 7 9 4 5 - - 0.0
23/06:30pm 9.8 8.9 9.3 97 0.3 SW 4 6 2 3 - - 0.0
23/06:00pm 9.7 8.3 9.6 99 0.1 WSW 7 9 4 5 - - 0.0
23/05:30pm 10.0 8.5 9.2 95 0.4 SW 7 9 4 5 - - 0.0
23/05:00pm 10.7 8.8 9.1 90 0.8 SW 9 11 5 6 - - 0.0
23/04:30pm 11.3 9.6 9.7 90 0.8 SSW 9 13 5 7 - - 0.0
23/04:00pm 11.7 9.2 9.8 88 1.0 SW 13 17 7 9 - - 0.0
23/03:30pm 12.1 8.6 10.2 88 1.0 SW 19 22 10 12 - - 0.0
23/03:00pm 12.5 9.4 10.4 87 1.1 SW 17 24 9 13 - - 0.0
23/02:30pm 12.4 9.3 10.3 87 1.1 SW 17 20 9 11 - - 0.0
23/02:00pm 12.5 10.6 10.6 88 1.0 SW 11 17 6 9 - - 0.0
23/01:30pm 11.8 8.9 9.5 86 1.2 SW 15 19 8 10 - - 0.0
23/01:00pm 11.6 8.6 9.3 86 1.2 WSW 15 24 8 13 - - 0.0
23/12:30pm 10.7 8.8 9.1 90 0.8 WSW 9 13 5 7 - - 0.0
23/12:00pm 9.9 7.5 8.5 91 0.7 WSW 11 15 6 8 - - 0.0
23/11:30am 9.7 7.4 8.9 95 0.4 WSW 11 19 6 10 - - 0.0
23/11:00am 8.9 6.0 8.3 96 0.3 SW 13 17 7 9 - - 0.0
23/10:30am 8.2 5.6 7.8 97 0.2 SW 11 15 6 8 - - 0.0
23/10:00am 7.9 5.7 7.8 99 0.0 WSW 9 13 5 7 - - 0.0

Other formats

Comma delimited format used in spreadsheet applications
http://www.bom.gov.au/fwo/IDN60801/IDN60801.95705.axf

JavaScript Object Notation format (JSON) in row-major order
http://www.bom.gov.au/fwo/IDN60801/IDN60801.95705.json

Data quality

Most of these data are generated automatically and are frequently updated. Quality checks on data are not normally performed. It is possible for incorrect values to appear. Refer to information at About Latest Weather Observations and please check the disclaimer before using these data.